Time;durP1;ratioP1;P1;durP2;ratioP2;P2;SDS_P1;SDS_P2;PMS_P1;PMS_P2;Temp;Humidity;BMP_temperature;BMP_pressure;BME280_temperature;BME280_humidity;BME280_pressure;Samples;Min_cycle;Max_cycle;Signal;HPM_P1;HPM_P2
2021/10/28 00:13:25;;;;;;;4.90;0.85;;;;;;;;;;5044390;28;20136;-69
2021/10/28 00:15:57;;;;;;;8.75;1.20;;;;;;;;;;5039721;28;20088;-69
2021/10/28 00:18:39;;;;;;;6.25;1.10;;;;;;;;;;5035193;28;20045;-70
2021/10/28 00:21:07;;;;;;;4.53;1.13;;;;;;;;;;5058302;28;20129;-70
2021/10/28 00:23:41;;;;;;;4.80;1.00;;;;;;;;;;5058433;28;21501;-70
2021/10/28 00:26:09;;;;;;;1.05;0.73;;;;;;;;;;5059552;28;20123;-70
2021/10/28 00:28:35;;;;;;;;;;;;;;;;;;5061382;28;20140;-70
2021/10/28 00:31:03;;;;;;;2.83;1.00;;;;;;;;;;5061603;28;20464;-69
2021/10/28 00:33:31;;;;;;;1.17;0.50;;;;;;;;;;5061090;28;20126;-69
2021/10/28 00:36:01;;;;;;;6.78;0.80;;;;;;;;;;5060662;28;20080;-70
2021/10/28 00:38:28;;;;;;;5.53;0.57;;;;;;;;;;5062557;28;20485;-69
2021/10/28 00:40:55;;;;;;;1.10;0.80;;;;;;;;;;5054631;28;20053;-70
2021/10/28 00:43:21;;;;;;;1.60;0.65;;;;;;;;;;5061145;28;20135;-70
2021/10/28 00:45:51;;;;;;;4.63;0.60;;;;;;;;;;5058000;28;20072;-69
2021/10/28 00:48:18;;;;;;;6.60;0.77;;;;;;;;;;5058564;28;20511;-69
2021/10/28 00:50:46;;;;;;;6.97;0.90;;;;;;;;;;5062711;28;20147;-70
2021/10/28 00:53:12;;;;;;;6.95;0.80;;;;;;;;;;5059005;28;20469;-69
2021/10/28 00:55:39;;;;;;;7.50;0.77;;;;;;;;;;5064503;28;20063;-70
2021/10/28 00:58:06;;;;;;;4.65;1.52;;;;;;;;;;5061638;28;20535;-69
2021/10/28 01:00:32;;;;;;;1.13;0.40;;;;;;;;;;5064258;28;20080;-70
2021/10/28 01:02:59;;;;;;;10.63;0.80;;;;;;;;;;5062808;28;20512;-69
2021/10/28 01:05:26;;;;;;;9.88;0.80;;;;;;;;;;5062643;28;20535;-69
2021/10/28 01:07:53;;;;;;;4.57;0.70;;;;;;;;;;5063123;28;20623;-70
2021/10/28 01:10:20;;;;;;;8.20;0.80;;;;;;;;;;5054965;28;20119;-69
2021/10/28 01:12:46;;;;;;;1.35;0.80;;;;;;;;;;5059445;28;20132;-69
2021/10/28 01:15:14;;;;;;;2.92;0.73;;;;;;;;;;5066431;28;20473;-69
2021/10/28 01:17:41;;;;;;;9.48;1.05;;;;;;;;;;5067582;28;20151;-69
2021/10/28 01:20:08;;;;;;;5.80;1.00;;;;;;;;;;5066306;28;20075;-70
2021/10/28 01:22:35;;;;;;;5.28;0.65;;;;;;;;;;5063683;28;20132;-69
2021/10/28 01:25:01;;;;;;;11.55;0.90;;;;;;;;;;5059810;28;20123;-69
2021/10/28 01:27:28;;;;;;;4.85;0.90;;;;;;;;;;5065258;28;20591;-70
2021/10/28 01:29:54;;;;;;;11.80;1.40;;;;;;;;;;5062659;28;20489;-69
2021/10/28 01:32:21;;;;;;;4.03;1.13;;;;;;;;;;5058613;28;20132;-70
2021/10/28 01:34:47;;;;;;;2.95;0.95;;;;;;;;;;5065352;28;20045;-69
2021/10/28 01:37:15;;;;;;;1.88;1.25;;;;;;;;;;5065970;28;20075;-69
2021/10/28 01:39:42;;;;;;;7.22;1.20;;;;;;;;;;5061800;28;20447;-70
2021/10/28 01:42:09;;;;;;;7.80;1.40;;;;;;;;;;5066219;28;20127;-69
2021/10/28 01:44:36;;;;;;;3.38;1.00;;;;;;;;;;5064858;28;20125;-70
2021/10/28 01:47:03;;;;;;;6.15;1.10;;;;;;;;;;5066779;28;20168;-70
2021/10/28 01:49:30;;;;;;;10.05;1.30;;;;;;;;;;5060505;28;20128;-69
2021/10/28 01:51:58;;;;;;;2.33;0.90;;;;;;;;;;5063042;28;20135;-69
2021/10/28 01:54:26;;;;;;;1.10;1.00;;;;;;;;;;5057515;28;20132;-70
2021/10/28 01:56:52;;;;;;;5.47;1.00;;;;;;;;;;5062294;28;20179;-69
2021/10/28 01:59:19;;;;;;;1.13;1.02;;;;;;;;;;5061653;28;20049;-69
2021/10/28 02:01:46;;;;;;;5.45;1.20;;;;;;;;;;5058176;28;20131;-70
2021/10/28 02:04:16;;;;;;;3.90;1.13;;;;;;;;;;5063590;28;20048;-70
2021/10/28 02:06:43;;;;;;;6.90;1.08;;;;;;;;;;5060364;28;20057;-70
2021/10/28 02:09:11;;;;;;;2.45;1.10;;;;;;;;;;5059865;28;20141;-70
2021/10/28 02:11:38;;;;;;;3.78;1.30;;;;;;;;;;5067656;28;20123;-70
2021/10/28 02:14:04;;;;;;;4.13;0.98;;;;;;;;;;5064857;28;20531;-71
2021/10/28 02:16:32;;;;;;;4.22;1.13;;;;;;;;;;5062461;28;20139;-70
2021/10/28 02:18:59;;;;;;;9.35;1.20;;;;;;;;;;5063968;28;20064;-70
2021/10/28 02:21:26;;;;;;;4.45;1.10;;;;;;;;;;5050863;28;20136;-70
2021/10/28 02:23:53;;;;;;;2.28;1.00;;;;;;;;;;5042999;28;20084;-70
2021/10/28 02:26:21;;;;;;;5.32;1.15;;;;;;;;;;5040304;28;20164;-70
2021/10/28 02:28:51;;;;;;;2.28;1.10;;;;;;;;;;5046245;28;20071;-70
2021/10/28 02:31:17;;;;;;;1.42;0.82;;;;;;;;;;5040647;28;20535;-70
2021/10/28 02:33:44;;;;;;;3.75;1.10;;;;;;;;;;5050674;28;20052;-70
2021/10/28 02:36:11;;;;;;;8.25;1.45;;;;;;;;;;5045507;28;20073;-70
2021/10/28 02:38:38;;;;;;;2.22;0.95;;;;;;;;;;5044725;28;20139;-70
2021/10/28 02:41:05;;;;;;;5.85;0.90;;;;;;;;;;5043281;28;20037;-70
2021/10/28 02:43:31;;;;;;;1.45;0.68;;;;;;;;;;5042868;28;20118;-70
2021/10/28 02:45:58;;;;;;;1.92;0.80;;;;;;;;;;5045743;28;20081;-70
2021/10/28 02:48:25;;;;;;;6.50;1.27;;;;;;;;;;5038595;28;20054;-70
2021/10/28 02:50:51;;;;;;;6.72;1.42;;;;;;;;;;5038977;28;20710;-69
2021/10/28 02:53:18;;;;;;;5.30;1.33;;;;;;;;;;5035366;28;20135;-70
2021/10/28 02:55:45;;;;;;;5.10;1.48;;;;;;;;;;5043112;28;20077;-70
2021/10/28 02:58:12;;;;;;;7.30;1.75;;;;;;;;;;5038759;28;20080;-69
2021/10/28 03:00:38;;;;;;;9.83;1.53;;;;;;;;;;5044152;28;20092;-70
2021/10/28 03:03:05;;;;;;;4.47;1.60;;;;;;;;;;5042103;28;20291;-70
2021/10/28 03:05:32;;;;;;;6.50;1.45;;;;;;;;;;5042442;28;20088;-70
2021/10/28 03:07:59;;;;;;;6.95;1.17;;;;;;;;;;5044906;28;20115;-70
2021/10/28 03:10:25;;;;;;;6.93;1.67;;;;;;;;;;5041267;28;20068;-69
2021/10/28 03:12:53;;;;;;;7.13;1.50;;;;;;;;;;5036556;28;20132;-69
2021/10/28 03:15:21;;;;;;;6.63;1.83;;;;;;;;;;5043733;28;20091;-69
2021/10/28 03:25:36;;;;;;;4.68;1.48;;;;;;;;;;5058029;28;19959;-69
2021/10/28 03:28:04;;;;;;;10.02;1.67;;;;;;;;;;5058901;28;20057;-69
2021/10/28 03:30:30;;;;;;;9.30;1.48;;;;;;;;;;5061732;28;20477;-70
2021/10/28 03:32:59;;;;;;;7.50;1.45;;;;;;;;;;5063208;28;20135;-69
2021/10/28 03:35:27;;;;;;;5.82;1.50;;;;;;;;;;5063148;28;20124;-69
2021/10/28 03:37:58;;;;;;;9.23;1.50;;;;;;;;;;5063614;28;20091;-69
2021/10/28 03:40:42;;;;;;;5.03;1.70;;;;;;;;;;5062358;28;20087;-69
2021/10/28 04:05:08;;;;;;;8.80;2.70;;;;;;;;;;5051922;28;20052;-69
2021/10/28 04:07:50;;;;;;;8.93;2.90;;;;;;;;;;5053571;28;20501;-69
2021/10/28 04:29:52;;;;;;;11.55;2.90;;;;;;;;;;4982489;28;20058;-69
2021/10/28 04:32:18;;;;;;;15.87;3.70;;;;;;;;;;5044265;28;20049;-70
2021/10/28 04:34:45;;;;;;;12.00;2.88;;;;;;;;;;5053599;28;20132;-70
2021/10/28 04:37:12;;;;;;;28.38;3.90;;;;;;;;;;5062528;28;20505;-69
2021/10/28 04:39:39;;;;;;;21.52;3.90;;;;;;;;;;5057534;28;20458;-70
2021/10/28 04:42:05;;;;;;;19.67;4.20;;;;;;;;;;5060879;28;20103;-70
2021/10/28 04:44:32;;;;;;;14.55;4.15;;;;;;;;;;5068741;28;20087;-69
2021/10/28 04:46:58;;;;;;;19.85;4.90;;;;;;;;;;5062537;28;20060;-69
2021/10/28 04:49:25;;;;;;;31.80;4.93;;;;;;;;;;5068254;28;20072;-69
2021/10/28 04:51:52;;;;;;;24.13;5.28;;;;;;;;;;5072199;28;20135;-69
2021/10/28 04:54:19;;;;;;;31.38;5.60;;;;;;;;;;5063232;28;20052;-70
2021/10/28 04:56:46;;;;;;;20.58;4.63;;;;;;;;;;5067209;28;20103;-70
2021/10/28 04:59:12;;;;;;;31.48;5.20;;;;;;;;;;5066557;28;20123;-70
2021/10/28 05:01:39;;;;;;;29.48;5.70;;;;;;;;;;5064048;28;20089;-70
2021/10/28 05:04:06;;;;;;;26.57;5.90;;;;;;;;;;5059244;28;20495;-69
2021/10/28 05:06:32;;;;;;;42.05;7.10;;;;;;;;;;5058796;28;20374;-69
2021/10/28 05:09:00;;;;;;;34.28;7.03;;;;;;;;;;5062318;28;20045;-70
2021/10/28 05:11:28;;;;;;;36.22;6.78;;;;;;;;;;5068687;28;20053;-70
2021/10/28 05:13:54;;;;;;;36.15;7.13;;;;;;;;;;5063446;28;21321;-69
2021/10/28 05:16:21;;;;;;;39.47;6.50;;;;;;;;;;5065791;28;20079;-70
2021/10/28 05:18:48;;;;;;;31.25;6.60;;;;;;;;;;5063225;28;20056;-69
2021/10/28 05:21:15;;;;;;;43.22;7.25;;;;;;;;;;5061990;28;20133;-70
2021/10/28 05:23:42;;;;;;;41.63;7.95;;;;;;;;;;5060831;28;20076;-70
2021/10/28 05:26:09;;;;;;;50.03;8.50;;;;;;;;;;5058580;28;20075;-69
2021/10/28 05:28:36;;;;;;;52.47;9.00;;;;;;;;;;5057623;28;20128;-70
2021/10/28 05:31:03;;;;;;;56.13;7.82;;;;;;;;;;5063504;28;20126;-69
2021/10/28 05:33:29;;;;;;;55.08;8.70;;;;;;;;;;5068171;28;20087;-69
2021/10/28 05:35:56;;;;;;;53.63;8.80;;;;;;;;;;5066948;28;20332;-70
2021/10/28 05:38:23;;;;;;;45.30;8.32;;;;;;;;;;5066482;28;20374;-70
2021/10/28 05:40:49;;;;;;;55.55;8.55;;;;;;;;;;5063256;28;20059;-69
2021/10/28 05:43:16;;;;;;;68.53;8.77;;;;;;;;;;5064726;28;20175;-69
2021/10/28 05:45:44;;;;;;;62.13;8.60;;;;;;;;;;5059106;28;20049;-70
2021/10/28 05:48:11;;;;;;;46.60;8.00;;;;;;;;;;5059005;28;20056;-69
2021/10/28 05:50:40;;;;;;;47.07;8.23;;;;;;;;;;5055629;28;20084;-70
2021/10/28 05:53:08;;;;;;;44.65;8.63;;;;;;;;;;5058633;28;20085;-70
2021/10/28 05:55:34;;;;;;;;;;;;;;;;;;5068271;28;20128;-69
2021/10/28 05:58:01;;;;;;;49.63;7.53;;;;;;;;;;5065751;28;19959;-69
2021/10/28 06:00:28;;;;;;;51.88;9.15;;;;;;;;;;5065721;28;20531;-69
2021/10/28 06:02:54;;;;;;;45.70;7.80;;;;;;;;;;5065882;28;20049;-70
2021/10/28 06:05:21;;;;;;;51.78;9.10;;;;;;;;;;5063690;28;20059;-70
2021/10/28 06:07:48;;;;;;;61.20;9.18;;;;;;;;;;5065498;28;20041;-70
2021/10/28 06:10:19;;;;;;;54.05;8.68;;;;;;;;;;5067670;28;20148;-70
2021/10/28 06:12:48;;;;;;;51.08;9.15;;;;;;;;;;5059657;28;20080;-70
2021/10/28 06:15:15;;;;;;;63.70;9.38;;;;;;;;;;5057751;28;20508;-70
2021/10/28 06:17:57;;;;;;;56.87;8.80;;;;;;;;;;5066600;28;20477;-69
2021/10/28 06:20:24;;;;;;;53.72;8.82;;;;;;;;;;5055400;28;20144;-70
2021/10/28 06:22:51;;;;;;;63.25;9.13;;;;;;;;;;5061182;28;20087;-69
2021/10/28 06:25:18;;;;;;;55.30;9.18;;;;;;;;;;5061907;28;20080;-70
2021/10/28 06:27:45;;;;;;;43.88;8.60;;;;;;;;;;5064217;28;20560;-69
2021/10/28 06:30:11;;;;;;;58.38;7.97;;;;;;;;;;5057972;28;20106;-69
2021/10/28 06:32:42;;;;;;;61.30;8.47;;;;;;;;;;5063803;28;20048;-70
2021/10/28 06:35:08;;;;;;;56.00;8.25;;;;;;;;;;5061572;28;20282;-70
2021/10/28 06:37:35;;;;;;;51.33;7.85;;;;;;;;;;5068801;28;20049;-69
2021/10/28 06:40:01;;;;;;;54.33;7.90;;;;;;;;;;5062232;28;20132;-70
2021/10/28 06:42:28;;;;;;;51.60;6.82;;;;;;;;;;5050881;28;20509;-70
2021/10/28 06:45:03;;;;;;;47.40;8.00;;;;;;;;;;5059471;28;20052;-69
2021/10/28 06:47:30;;;;;;;44.97;7.10;;;;;;;;;;5060328;28;20076;-69
2021/10/28 06:49:59;;;;;;;45.17;7.93;;;;;;;;;;5060946;28;20144;-69
2021/10/28 06:52:35;;;;;;;50.78;8.27;;;;;;;;;;5064745;28;20121;-69
2021/10/28 06:55:06;;;;;;;54.88;8.25;;;;;;;;;;5059678;28;20127;-69
2021/10/28 06:57:56;;;;;;;45.00;6.80;;;;;;;;;;5064122;28;20412;-69
2021/10/28 07:03:05;;;;;;;42.92;7.32;;;;;;;;;;5059767;28;20048;-69
2021/10/28 07:05:32;;;;;;;39.30;6.93;;;;;;;;;;5054883;28;20482;-69
2021/10/28 07:07:58;;;;;;;56.80;8.02;;;;;;;;;;5055483;28;20076;-70
2021/10/28 07:10:25;;;;;;;35.13;6.82;;;;;;;;;;5052079;28;20132;-70
2021/10/28 07:15:31;;;;;;;46.67;6.70;;;;;;;;;;5061933;28;20118;-69
2021/10/28 07:18:08;;;;;;;40.05;6.90;;;;;;;;;;5062895;28;20072;-69
2021/10/28 07:38:06;;;;;;;33.70;6.95;;;;;;;;;;5057206;28;20131;-69
2021/10/28 08:14:59;;;;;;;33.58;6.32;;;;;;;;;;5023861;28;20049;-70
2021/10/28 08:20:18;;;;;;;37.45;7.13;;;;;;;;;;5064860;28;19959;-70
2021/10/28 08:22:59;;;;;;;35.10;7.07;;;;;;;;;;5054718;28;20140;-70
2021/10/28 08:30:56;;;;;;;24.73;6.50;;;;;;;;;;5056792;28;20135;-70
2021/10/28 08:33:24;;;;;;;21.10;5.97;;;;;;;;;;5057043;28;20052;-70
2021/10/28 08:35:56;;;;;;;31.77;7.07;;;;;;;;;;5061934;28;20164;-70
2021/10/28 08:38:23;;;;;;;35.83;7.15;;;;;;;;;;5060155;28;20087;-70
2021/10/28 08:40:52;;;;;;;24.33;5.95;;;;;;;;;;5062537;28;20507;-70
2021/10/28 08:43:20;;;;;;;25.90;6.28;;;;;;;;;;5059049;28;20139;-70
2021/10/28 08:45:49;;;;;;;27.23;5.88;;;;;;;;;;5056621;28;20095;-70
2021/10/28 08:48:15;;;;;;;31.05;6.60;;;;;;;;;;5058108;28;20505;-70
2021/10/28 08:50:48;;;;;;;32.75;6.70;;;;;;;;;;5054917;28;20099;-69
2021/10/28 08:55:49;;;;;;;34.90;6.50;;;;;;;;;;5059655;28;20053;-69
2021/10/28 09:26:10;;;;;;;33.00;6.45;;;;;;;;;;5059091;28;20114;-70
2021/10/28 09:28:41;;;;;;;27.73;6.97;;;;;;;;;;5065443;28;20052;-70
2021/10/28 09:31:21;;;;;;;36.70;7.97;;;;;;;;;;5063116;28;20135;-70
2021/10/28 09:34:09;;;;;;;37.97;7.90;;;;;;;;;;5061355;28;20496;-70
2021/10/28 09:45:28;;;;;;;36.83;8.45;;;;;;;;;;5059942;28;20055;-70
2021/10/28 09:50:30;;;;;;;37.30;7.20;;;;;;;;;;5066806;28;20118;-71
2021/10/28 09:53:13;;;;;;;43.75;8.43;;;;;;;;;;5064483;28;20045;-70
2021/10/28 09:58:26;;;;;;;30.15;7.85;;;;;;;;;;5066743;28;20044;-70
2021/10/28 10:00:54;;;;;;;31.40;8.32;;;;;;;;;;5043267;28;20135;-70
2021/10/28 10:03:26;;;;;;;;;;;;;;;;;;5066809;28;20056;-70
2021/10/28 10:06:01;;;;;;;41.88;9.82;;;;;;;;;;5055801;28;20440;-70
2021/10/28 10:08:29;;;;;;;33.70;7.90;;;;;;;;;;5059701;28;20072;-70
2021/10/28 10:10:56;;;;;;;34.45;8.48;;;;;;;;;;5056746;28;20049;-70
2021/10/28 10:13:23;;;;;;;34.72;9.88;;;;;;;;;;5061458;28;20077;-70
2021/10/28 10:15:50;;;;;;;;;;;;;;;;;;5063230;28;20469;-69
2021/10/28 10:18:19;;;;;;;38.83;9.63;;;;;;;;;;5062978;28;20011;-70
2021/10/28 10:23:39;;;;;;;41.85;8.52;;;;;;;;;;5063218;28;20460;-70
2021/10/28 12:25:15;;;;;;;51.35;11.20;;;;;;;;;;5058447;28;20357;-70
2021/10/28 12:44:26;;;;;;;48.55;11.48;;;;;;;;;;5053191;28;20080;-69
2021/10/28 12:47:17;;;;;;;46.42;10.63;;;;;;;;;;5064669;28;20072;-70
2021/10/28 13:57:52;;;;;;;29.60;8.25;;;;;;;;;;5057827;28;20124;-69
2021/10/28 15:02:56;;;;;;;35.60;14.43;;;;;;;;;;5063029;28;20139;-69
2021/10/28 15:33:30;;;;;;;38.03;17.00;;;;;;;;;;5065979;28;20135;-70
2021/10/28 15:35:44;;;;;;;35.78;17.25;;;;;;;;;;5063092;28;20183;-69
2021/10/28 15:38:24;;;;;;;40.08;16.80;;;;;;;;;;5058754;28;20576;-70
2021/10/28 15:56:58;;;;;;;40.88;19.10;;;;;;;;;;5062452;28;20547;-70
2021/10/28 16:24:34;;;;;;;41.45;23.08;;;;;;;;;;4946647;28;20134;-69
2021/10/28 16:27:01;;;;;;;53.85;23.00;;;;;;;;;;5033792;28;20448;-70
2021/10/28 16:29:28;;;;;;;51.13;24.45;;;;;;;;;;5060511;28;20102;-70
2021/10/28 16:31:55;;;;;;;56.23;25.53;;;;;;;;;;5066511;28;20362;-70
2021/10/28 16:34:24;;;;;;;57.90;26.90;;;;;;;;;;5058317;28;20671;-69
2021/10/28 16:36:51;;;;;;;53.30;26.27;;;;;;;;;;5049036;28;20108;-69
2021/10/28 16:39:17;;;;;;;;;;;;;;;;;;5065438;28;20121;-69
2021/10/28 16:41:45;;;;;;;47.75;24.38;;;;;;;;;;5070072;28;19974;-69
2021/10/28 16:44:12;;;;;;;54.58;24.50;;;;;;;;;;5069683;28;20343;-69
2021/10/28 16:46:38;;;;;;;54.70;27.17;;;;;;;;;;5063917;28;20270;-69
2021/10/28 16:49:06;;;;;;;49.17;27.80;;;;;;;;;;5067526;28;20104;-70
2021/10/28 16:51:33;;;;;;;50.60;27.80;;;;;;;;;;5066816;28;20604;-70
2021/10/28 16:54:00;;;;;;;59.42;28.85;;;;;;;;;;5069556;28;20084;-70
2021/10/28 16:56:26;;;;;;;51.47;27.08;;;;;;;;;;5066671;28;20085;-69
2021/10/28 16:58:53;;;;;;;49.95;27.27;;;;;;;;;;5061783;28;20087;-70
2021/10/28 17:01:20;;;;;;;63.22;29.80;;;;;;;;;;5065542;28;20135;-70
2021/10/28 17:03:47;;;;;;;50.55;27.42;;;;;;;;;;5069554;28;20060;-70
2021/10/28 17:06:16;;;;;;;60.15;28.50;;;;;;;;;;5069896;28;20083;-69
2021/10/28 17:08:43;;;;;;;59.88;29.63;;;;;;;;;;5068857;28;20424;-70
2021/10/28 17:11:10;;;;;;;56.58;31.50;;;;;;;;;;5069046;28;20084;-70
2021/10/28 17:13:36;;;;;;;56.95;31.55;;;;;;;;;;5066921;28;20179;-70
2021/10/28 17:16:03;;;;;;;56.25;30.23;;;;;;;;;;5070565;28;20140;-69
2021/10/28 17:18:30;;;;;;;56.08;30.80;;;;;;;;;;5066695;28;20564;-70
2021/10/28 17:20:59;;;;;;;55.30;29.45;;;;;;;;;;5063588;28;20087;-69
2021/10/28 17:23:32;;;;;;;60.72;32.72;;;;;;;;;;5060693;28;20132;-69
2021/10/28 17:26:02;;;;;;;56.45;30.67;;;;;;;;;;5062771;28;20480;-69
2021/10/28 17:28:28;;;;;;;60.05;32.25;;;;;;;;;;5071161;28;20476;-69
2021/10/28 17:30:55;;;;;;;58.25;31.15;;;;;;;;;;5068201;28;20132;-70
2021/10/28 17:33:21;;;;;;;62.10;30.85;;;;;;;;;;5067553;28;20048;-70
2021/10/28 17:35:48;;;;;;;53.58;31.90;;;;;;;;;;5068904;28;20091;-70
2021/10/28 17:38:15;;;;;;;59.05;31.50;;;;;;;;;;5066286;28;20084;-70
2021/10/28 17:40:41;;;;;;;60.85;31.20;;;;;;;;;;5072985;28;20052;-70
2021/10/28 17:43:11;;;;;;;52.05;30.90;;;;;;;;;;5069497;28;20144;-69
2021/10/28 17:45:37;;;;;;;60.15;30.80;;;;;;;;;;5068271;28;20352;-70
2021/10/28 17:48:04;;;;;;;52.63;31.70;;;;;;;;;;5063531;28;20040;-70
2021/10/28 17:50:31;;;;;;;61.47;31.10;;;;;;;;;;5063392;28;20131;-69
2021/10/28 17:52:57;;;;;;;51.15;30.98;;;;;;;;;;5063543;28;20120;-69
2021/10/28 17:55:24;;;;;;;50.58;30.15;;;;;;;;;;5059211;28;20072;-69
2021/10/28 17:57:50;;;;;;;55.75;30.85;;;;;;;;;;5064396;28;20202;-70
2021/10/28 18:00:18;;;;;;;57.25;31.05;;;;;;;;;;5067250;28;20051;-69
2021/10/28 18:02:45;;;;;;;47.38;26.65;;;;;;;;;;5067992;28;20057;-70
2021/10/28 18:05:26;;;;;;;56.33;29.13;;;;;;;;;;5062893;28;20139;-69
2021/10/28 18:07:52;;;;;;;56.47;29.15;;;;;;;;;;5066550;28;20497;-70
2021/10/28 18:10:19;;;;;;;54.92;29.42;;;;;;;;;;5065526;28;20538;-71
2021/10/28 18:12:46;;;;;;;58.10;29.60;;;;;;;;;;5060626;28;20496;-71
2021/10/28 18:15:16;;;;;;;47.47;26.63;;;;;;;;;;5063716;28;20124;-71
2021/10/28 18:17:42;;;;;;;62.65;30.30;;;;;;;;;;5064953;28;20519;-71
2021/10/28 18:20:09;;;;;;;57.75;29.23;;;;;;;;;;5062005;28;20084;-71
2021/10/28 18:22:37;;;;;;;52.05;28.42;;;;;;;;;;5061614;28;20540;-72
2021/10/28 18:25:05;;;;;;;58.28;30.00;;;;;;;;;;5067747;28;20132;-71
2021/10/28 18:27:32;;;;;;;;;;;;;;;;;;5064807;28;20079;-71
2021/10/28 18:30:00;;;;;;;57.90;31.03;;;;;;;;;;5063772;28;19951;-71
2021/10/28 18:32:27;;;;;;;65.78;28.90;;;;;;;;;;5065428;28;20322;-71
2021/10/28 18:34:54;;;;;;;58.93;29.87;;;;;;;;;;5065638;28;20572;-71
2021/10/28 18:37:21;;;;;;;61.88;31.80;;;;;;;;;;5060331;28;20861;-71
2021/10/28 18:39:51;;;;;;;69.50;31.85;;;;;;;;;;5057344;28;20048;-71
2021/10/28 18:42:18;;;;;;;70.78;33.47;;;;;;;;;;5059658;28;20106;-71
2021/10/28 18:44:44;;;;;;;75.40;32.67;;;;;;;;;;5059634;28;20139;-70
2021/10/28 18:47:11;;;;;;;70.80;33.95;;;;;;;;;;5064283;28;20411;-71
2021/10/28 18:49:37;;;;;;;70.93;33.22;;;;;;;;;;5062395;28;20135;-71
2021/10/28 18:52:04;;;;;;;70.20;33.97;;;;;;;;;;5062665;28;20461;-71
2021/10/28 18:54:31;;;;;;;72.72;34.40;;;;;;;;;;5064384;28;20378;-71
2021/10/28 18:56:57;;;;;;;80.82;34.70;;;;;;;;;;5064427;28;20081;-71
2021/10/28 18:59:24;;;;;;;85.68;34.80;;;;;;;;;;5060562;28;20111;-71
2021/10/28 19:01:54;;;;;;;75.93;33.37;;;;;;;;;;5058987;28;20099;-71
2021/10/28 19:04:21;;;;;;;83.50;33.17;;;;;;;;;;5056561;28;20049;-71
2021/10/28 19:06:48;;;;;;;78.20;33.47;;;;;;;;;;5057521;28;20140;-71
2021/10/28 19:09:15;;;;;;;77.70;34.17;;;;;;;;;;5065981;28;20060;-71
2021/10/28 19:11:41;;;;;;;77.43;32.47;;;;;;;;;;5067202;28;20473;-70
2021/10/28 19:14:08;;;;;;;78.20;34.45;;;;;;;;;;5048712;28;20073;-71
2021/10/28 19:16:34;;;;;;;76.53;31.75;;;;;;;;;;5063690;28;20106;-71
2021/10/28 19:19:02;;;;;;;82.33;33.93;;;;;;;;;;5064914;28;20078;-70
2021/10/28 19:21:29;;;;;;;83.60;30.02;;;;;;;;;;5065302;28;20087;-71
2021/10/28 19:23:56;;;;;;;73.68;33.22;;;;;;;;;;5060190;28;20128;-71
2021/10/28 19:26:23;;;;;;;64.55;30.13;;;;;;;;;;5058378;28;20420;-71
2021/10/28 19:28:50;;;;;;;87.13;31.75;;;;;;;;;;5062102;28;20123;-70
2021/10/28 19:31:21;;;;;;;77.82;33.10;;;;;;;;;;5061250;28;20095;-69
2021/10/28 19:33:50;;;;;;;78.13;32.25;;;;;;;;;;5062032;28;20405;-70
2021/10/28 19:36:36;;;;;;;78.03;30.10;;;;;;;;;;5059436;28;20143;-70
2021/10/28 19:47:02;;;;;;;71.22;28.00;;;;;;;;;;5063183;28;20052;-70
2021/10/28 19:49:29;;;;;;;64.78;29.35;;;;;;;;;;5049647;28;20127;-70
2021/10/28 19:51:55;;;;;;;70.17;28.93;;;;;;;;;;5064085;28;20484;-70
2021/10/28 19:54:22;;;;;;;76.95;29.23;;;;;;;;;;5061726;28;20101;-70
2021/10/28 19:56:49;;;;;;;76.60;29.15;;;;;;;;;;5058738;28;20537;-70
2021/10/28 19:59:18;;;;;;;69.97;28.80;;;;;;;;;;5055587;28;20124;-70
2021/10/28 20:01:54;;;;;;;66.85;30.15;;;;;;;;;;5057773;28;20724;-70
2021/10/28 20:07:00;;;;;;;64.53;27.95;;;;;;;;;;5064064;28;20052;-70
2021/10/28 20:20:31;;;;;;;79.18;28.63;;;;;;;;;;5060172;28;20581;-70
2021/10/28 20:22:58;;;;;;;61.33;27.42;;;;;;;;;;5057730;28;20076;-70
2021/10/28 20:25:26;;;;;;;76.20;28.77;;;;;;;;;;5060385;28;20080;-70
2021/10/28 20:27:53;;;;;;;66.25;26.88;;;;;;;;;;5061014;28;20334;-70
2021/10/28 20:30:22;;;;;;;83.55;29.75;;;;;;;;;;5047442;28;20477;-70
2021/10/28 20:32:49;;;;;;;82.32;29.45;;;;;;;;;;5063184;28;20079;-70
2021/10/28 20:35:29;;;;;;;81.35;29.48;;;;;;;;;;5060853;28;20131;-70
2021/10/28 20:37:56;;;;;;;83.40;30.33;;;;;;;;;;5059097;28;20586;-70
2021/10/28 20:40:30;;;;;;;79.15;31.15;;;;;;;;;;5060054;28;20041;-70
2021/10/28 20:42:56;;;;;;;80.22;29.77;;;;;;;;;;5055463;28;20163;-70
2021/10/28 20:45:24;;;;;;;85.00;30.92;;;;;;;;;;5051267;28;20095;-70
2021/10/28 20:47:52;;;;;;;77.20;29.15;;;;;;;;;;5053489;28;20040;-70
2021/10/28 20:50:20;;;;;;;88.40;30.25;;;;;;;;;;5056855;28;20056;-70
2021/10/28 20:52:46;;;;;;;71.40;29.42;;;;;;;;;;5056973;28;20136;-70
2021/10/28 20:55:13;;;;;;;84.10;30.67;;;;;;;;;;5058894;28;20141;-70
2021/10/28 20:57:40;;;;;;;74.43;29.88;;;;;;;;;;5057561;28;20488;-70
2021/10/28 21:00:08;;;;;;;81.70;29.95;;;;;;;;;;5061026;28;20554;-70
2021/10/28 21:02:36;;;;;;;87.55;30.15;;;;;;;;;;5061035;28;20072;-70
2021/10/28 21:05:09;;;;;;;77.78;30.92;;;;;;;;;;5056900;28;20540;-70
2021/10/28 21:07:36;;;;;;;88.40;30.55;;;;;;;;;;5057390;28;20086;-70
2021/10/28 21:10:03;;;;;;;83.35;31.55;;;;;;;;;;5054325;28;20052;-70
2021/10/28 21:12:30;;;;;;;86.53;30.73;;;;;;;;;;5056804;28;20548;-70
2021/10/28 21:14:56;;;;;;;70.30;29.30;;;;;;;;;;5056797;28;20476;-70
2021/10/28 21:17:23;;;;;;;88.45;30.35;;;;;;;;;;5059696;28;20140;-70
2021/10/28 21:19:49;;;;;;;70.97;29.35;;;;;;;;;;5055673;28;20103;-69
2021/10/28 21:22:16;;;;;;;92.83;30.73;;;;;;;;;;5059444;28;20111;-70
2021/10/28 21:24:49;;;;;;;76.43;29.10;;;;;;;;;;5060872;28;20610;-70
2021/10/28 21:27:20;;;;;;;88.50;30.13;;;;;;;;;;5062870;28;20139;-70
2021/10/28 21:29:47;;;;;;;95.22;31.23;;;;;;;;;;5061905;28;20527;-70
2021/10/28 21:32:14;;;;;;;92.47;30.47;;;;;;;;;;5063080;28;20080;-69
2021/10/28 21:34:41;;;;;;;88.03;29.30;;;;;;;;;;5062623;28;20132;-70
2021/10/28 21:37:10;;;;;;;89.70;31.25;;;;;;;;;;5061333;28;20156;-70
2021/10/28 21:39:36;;;;;;;95.43;31.52;;;;;;;;;;5055680;28;20583;-70
2021/10/28 21:42:03;;;;;;;97.47;32.55;;;;;;;;;;5057473;28;20098;-69
2021/10/28 21:44:30;;;;;;;95.03;31.33;;;;;;;;;;5059525;28;20500;-70
2021/10/28 21:46:57;;;;;;;90.78;31.95;;;;;;;;;;5066030;28;20079;-71
2021/10/28 21:49:24;;;;;;;84.47;30.10;;;;;;;;;;5062634;28;20535;-70
2021/10/28 21:51:55;;;;;;;98.07;32.47;;;;;;;;;;5063723;28;20080;-70
2021/10/28 21:57:14;;;;;;;98.35;31.08;;;;;;;;;;5064916;28;20600;-70
2021/10/28 22:05:16;;;;;;;88.20;30.45;;;;;;;;;;5058714;28;20515;-70
2021/10/28 22:24:22;;;;;;;96.32;33.78;;;;;;;;;;5049801;28;20132;-69
2021/10/28 22:26:54;;;;;;;96.75;32.80;;;;;;;;;;5048842;28;20044;-69
2021/10/28 22:29:21;;;;;;;103.68;33.38;;;;;;;;;;5049919;28;20072;-70
2021/10/28 22:31:47;;;;;;;85.05;30.23;;;;;;;;;;5051129;28;20065;-69
2021/10/28 22:34:16;;;;;;;102.63;32.03;;;;;;;;;;5049844;28;20481;-70
2021/10/28 22:36:48;;;;;;;89.60;31.55;;;;;;;;;;5045992;28;20136;-69
2021/10/28 22:40:09;;;;;;;102.50;35.75;;;;;;;;;;5048422;28;20077;-69
2021/10/28 22:42:04;;;;;;;105.80;34.47;;;;;;;;;;5041746;28;21447;-70
2021/10/28 22:44:30;;;;;;;110.07;33.53;;;;;;;;;;5050118;28;20084;-70
2021/10/28 22:46:57;;;;;;;103.72;33.03;;;;;;;;;;5049768;28;20496;-70
2021/10/28 22:49:23;;;;;;;110.70;35.83;;;;;;;;;;5051895;28;20159;-70
2021/10/28 22:51:50;;;;;;;90.22;31.35;;;;;;;;;;5052603;28;20127;-70
2021/10/28 22:54:16;;;;;;;89.63;33.13;;;;;;;;;;5049380;28;20131;-70
2021/10/28 22:56:43;;;;;;;111.35;35.90;;;;;;;;;;5048475;28;20134;-69
2021/10/28 22:59:10;;;;;;;92.30;32.50;;;;;;;;;;5051649;28;20041;-70
2021/10/28 23:01:46;;;;;;;82.97;31.10;;;;;;;;;;5051329;28;20087;-69
2021/10/28 23:04:43;;;;;;;91.47;33.70;;;;;;;;;;5049081;28;20041;-70
2021/10/28 23:15:11;;;;;;;82.47;31.27;;;;;;;;;;5049650;28;20143;-70
2021/10/28 23:23:08;;;;;;;102.43;36.28;;;;;;;;;;5056942;28;20132;-70
2021/10/28 23:25:35;;;;;;;97.05;35.67;;;;;;;;;;5057993;28;20143;-70
2021/10/28 23:28:01;;;;;;;95.50;34.03;;;;;;;;;;5060002;28;20084;-70
2021/10/28 23:30:28;;;;;;;100.40;34.55;;;;;;;;;;5059531;28;20145;-69
2021/10/28 23:32:58;;;;;;;100.60;33.80;;;;;;;;;;5062827;28;20041;-70
2021/10/28 23:35:25;;;;;;;90.15;34.38;;;;;;;;;;5063134;28;20110;-69
2021/10/28 23:37:51;;;;;;;89.72;32.95;;;;;;;;;;5060465;28;20084;-69
2021/10/28 23:40:18;;;;;;;95.25;36.28;;;;;;;;;;5047285;28;20548;-69
2021/10/28 23:42:44;;;;;;;90.75;35.58;;;;;;;;;;5060275;28;20091;-70
2021/10/28 23:45:11;;;;;;;85.95;33.10;;;;;;;;;;5059256;28;20099;-69
2021/10/28 23:47:38;;;;;;;95.72;33.80;;;;;;;;;;5057494;28;20143;-69
2021/10/28 23:50:04;;;;;;;114.82;37.92;;;;;;;;;;5056509;28;20132;-69
2021/10/28 23:52:31;;;;;;;111.83;39.23;;;;;;;;;;5058448;28;20053;-70
2021/10/28 23:54:58;;;;;;;108.22;38.28;;;;;;;;;;5058188;28;20070;-70
2021/10/28 23:57:25;;;;;;;101.63;37.45;;;;;;;;;;5059973;28;20449;-69
2021/10/28 23:59:51;;;;;;;112.50;38.25;;;;;;;;;;5061593;28;20613;-69
